Time;durP1;ratioP1;P1;durP2;ratioP2;P2;SDS_P1;SDS_P2;PMS_P1;PMS_P2;Temp;Humidity;BMP_temperature;BMP_pressure;BME280_temperature;BME280_humidity;BME280_pressure;Samples;Min_cycle;Max_cycle;Signal;HPM_P1;HPM_P2
2023/05/28 00:01:56;;;;;;;16.60;8.65;;;11.90;99.90;;;;;;5134846;27;20046;-72
2023/05/28 00:04:21;;;;;;;21.17;8.65;;;11.90;99.90;;;;;;5134837;27;20452;-72
2023/05/28 00:06:48;;;;;;;15.88;8.77;;;11.90;99.90;;;;;;5134526;27;20068;-72
2023/05/28 00:09:14;;;;;;;17.48;9.55;;;11.90;99.90;;;;;;5134516;27;20051;-72
2023/05/28 00:11:40;;;;;;;13.95;8.00;;;11.80;99.90;;;;;;5135022;27;20054;-72
2023/05/28 00:14:06;;;;;;;14.05;9.35;;;11.80;99.90;;;;;;5134389;27;20488;-73
2023/05/28 00:16:35;;;;;;;16.88;10.15;;;11.80;99.90;;;;;;5134396;27;20108;-72
2023/05/28 00:19:02;;;;;;;14.52;8.10;;;11.80;99.90;;;;;;5133192;27;20047;-73
2023/05/28 00:21:27;;;;;;;21.98;10.75;;;11.60;99.90;;;;;;5134159;27;20039;-72
2023/05/28 00:23:53;;;;;;;16.98;9.55;;;11.80;99.90;;;;;;5134664;27;20061;-72
2023/05/28 00:26:19;;;;;;;16.80;10.43;;;11.70;99.90;;;;;;5134801;27;20054;-72
2023/05/28 00:28:44;;;;;;;17.75;9.85;;;11.80;99.90;;;;;;5134431;27;20557;-72
2023/05/28 00:31:11;;;;;;;19.67;10.25;;;11.70;99.90;;;;;;5134296;27;20046;-72
2023/05/28 00:33:36;;;;;;;14.70;9.32;;;11.80;99.90;;;;;;5134645;27;20130;-72
2023/05/28 00:36:02;;;;;;;16.63;8.75;;;11.70;99.90;;;;;;5133888;27;20082;-72
2023/05/28 00:38:28;;;;;;;11.80;7.95;;;11.70;99.90;;;;;;5138955;27;20068;-72
2023/05/28 00:40:56;;;;;;;19.98;9.13;;;11.70;99.90;;;;;;5136364;27;20043;-72
2023/05/28 00:43:22;;;;;;;13.48;7.03;;;11.70;99.90;;;;;;5154746;27;20042;-72
2023/05/28 00:45:50;;;;;;;15.50;8.85;;;11.70;99.90;;;;;;5136183;27;20539;-72
2023/05/28 00:48:16;;;;;;;14.18;8.63;;;11.70;99.90;;;;;;5154700;27;20129;-72
2023/05/28 00:50:43;;;;;;;14.75;7.88;;;11.70;99.90;;;;;;5135999;27;20514;-72
2023/05/28 00:53:11;;;;;;;12.38;7.60;;;11.70;99.90;;;;;;5153940;27;20046;-72
2023/05/28 00:55:37;;;;;;;16.00;8.15;;;11.70;99.90;;;;;;5136708;27;20049;-72
2023/05/28 00:58:07;;;;;;;19.33;8.40;;;11.60;99.90;;;;;;5135981;27;20042;-72
2023/05/28 01:00:37;;;;;;;14.98;9.00;;;11.60;99.90;;;;;;5154330;27;20043;-72
2023/05/28 01:03:04;;;;;;;17.55;8.20;;;11.60;99.90;;;;;;5154314;27;20077;-73
2023/05/28 01:05:34;;;;;;;14.90;9.45;;;11.60;99.90;;;;;;5154253;27;20054;-72
2023/05/28 01:08:04;;;;;;;11.60;7.35;;;11.60;99.90;;;;;;5119440;27;20055;-72
2023/05/28 01:10:31;;;;;;;13.07;8.73;;;11.60;99.90;;;;;;5153929;27;20430;-72
2023/05/28 01:12:59;;;;;;;18.00;8.57;;;11.60;99.90;;;;;;5154190;27;20043;-72
2023/05/28 01:15:25;;;;;;;17.88;8.38;;;11.60;99.90;;;;;;5154233;27;20047;-72
2023/05/28 01:17:59;;;;;;;16.33;8.52;;;11.70;99.90;;;;;;5154589;27;20615;-72
2023/05/28 01:20:29;;;;;;;15.77;7.90;;;11.70;99.90;;;;;;5154188;27;20046;-72
2023/05/28 01:23:00;;;;;;;17.52;8.75;;;11.70;99.90;;;;;;5154282;27;20062;-72
2023/05/28 01:25:26;;;;;;;11.40;7.15;;;12.30;99.90;;;;;;5154061;27;20065;-72
2023/05/28 01:27:53;;;;;;;19.33;8.32;;;11.80;99.90;;;;;;5154633;27;20042;-72
2023/05/28 01:30:20;;;;;;;22.25;8.65;;;11.80;99.90;;;;;;5153947;27;20027;-72
2023/05/28 01:32:46;;;;;;;16.17;8.38;;;11.80;99.90;;;;;;5154145;27;20097;-72
2023/05/28 01:35:12;;;;;;;10.63;7.13;;;11.80;99.90;;;;;;5153875;27;20483;-72
2023/05/28 01:37:41;;;;;;;21.13;7.47;;;11.90;99.90;;;;;;5154187;27;20058;-72
2023/05/28 01:40:08;;;;;;;18.13;7.70;;;11.90;99.90;;;;;;5135294;27;20444;-73
2023/05/28 01:42:35;;;;;;;15.00;7.10;;;11.90;99.90;;;;;;5153928;27;20051;-72
2023/05/28 01:45:05;;;;;;;15.85;7.28;;;11.80;99.90;;;;;;5153821;27;20047;-73
2023/05/28 01:47:32;;;;;;;15.18;7.82;;;11.80;99.90;;;;;;5154174;27;20046;-73
2023/05/28 01:49:57;;;;;;;12.50;6.90;;;11.80;99.90;;;;;;5154167;27;20069;-72
2023/05/28 01:52:23;;;;;;;18.33;7.95;;;11.80;99.90;;;;;;5135258;27;20440;-72
2023/05/28 01:54:49;;;;;;;13.35;7.85;;;11.80;99.90;;;;;;5153533;27;20035;-72
2023/05/28 01:57:15;;;;;;;14.02;7.63;;;11.80;99.90;;;;;;5153424;27;20551;-72
2023/05/28 01:59:40;;;;;;;11.57;7.78;;;11.80;99.90;;;;;;5135060;27;20109;-72
2023/05/28 02:02:07;;;;;;;15.85;8.27;;;11.80;99.90;;;;;;5153712;27;20435;-71
2023/05/28 02:04:33;;;;;;;15.13;7.93;;;11.80;99.90;;;;;;5135801;27;20050;-71
2023/05/28 02:06:58;;;;;;;12.77;7.78;;;11.80;99.90;;;;;;5158218;27;20504;-72
2023/05/28 02:09:24;;;;;;;14.52;7.55;;;11.70;99.90;;;;;;5122464;27;20438;-71
2023/05/28 02:11:50;;;;;;;15.13;7.38;;;11.70;99.90;;;;;;5157674;27;20035;-71
2023/05/28 02:14:16;;;;;;;14.50;7.70;;;11.70;99.90;;;;;;5160240;27;20086;-71
2023/05/28 02:16:45;;;;;;;16.95;8.20;;;11.70;99.90;;;;;;5161470;27;20119;-71
2023/05/28 02:19:11;;;;;;;14.20;7.60;;;11.70;99.90;;;;;;5141827;27;20042;-72
2023/05/28 02:21:37;;;;;;;18.95;8.40;;;11.70;99.90;;;;;;5158353;27;20045;-72
2023/05/28 02:24:03;;;;;;;13.38;8.10;;;11.70;99.90;;;;;;5157971;27;20050;-72
2023/05/28 02:26:29;;;;;;;12.77;6.80;;;11.70;99.90;;;;;;5122054;27;20126;-72
2023/05/28 02:28:55;;;;;;;14.18;8.45;;;11.70;99.90;;;;;;5157484;27;20039;-73
2023/05/28 02:31:20;;;;;;;13.25;8.52;;;11.70;99.90;;;;;;5157116;27;20042;-72
2023/05/28 02:33:46;;;;;;;13.32;6.88;;;11.70;99.90;;;;;;5157227;27;20144;-72
2023/05/28 02:36:12;;;;;;;13.07;7.13;;;11.70;99.90;;;;;;5157716;27;20427;-72
2023/05/28 02:38:38;;;;;;;18.15;7.90;;;11.70;99.90;;;;;;5156790;27;20043;-71
2023/05/28 02:41:04;;;;;;;14.40;7.57;;;11.70;99.90;;;;;;5156821;27;20055;-72
2023/05/28 02:43:30;;;;;;;12.68;7.22;;;11.80;99.90;;;;;;5157464;27;20122;-72
2023/05/28 02:45:56;;;;;;;16.42;7.28;;;11.80;99.90;;;;;;5156599;27;20438;-72
2023/05/28 02:48:22;;;;;;;15.27;7.63;;;11.80;99.90;;;;;;5138425;27;20046;-72
2023/05/28 02:50:47;;;;;;;13.95;7.50;;;11.80;99.90;;;;;;5156954;27;20175;-72
2023/05/28 02:53:14;;;;;;;12.50;6.72;;;11.80;99.90;;;;;;5156931;27;20459;-72
2023/05/28 02:55:40;;;;;;;14.45;7.63;;;11.80;99.90;;;;;;5156643;27;20047;-72
2023/05/28 02:58:05;;;;;;;13.90;7.53;;;11.80;99.90;;;;;;5156863;27;20046;-73
2023/05/28 03:00:31;;;;;;;11.98;6.13;;;11.80;99.90;;;;;;5156775;27;20042;-72
2023/05/28 03:02:57;;;;;;;13.30;6.88;;;11.90;99.90;;;;;;5156768;27;20136;-72
2023/05/28 03:05:23;;;;;;;11.40;6.50;;;11.80;99.90;;;;;;5157094;27;20043;-71
2023/05/28 03:07:49;;;;;;;17.08;6.20;;;11.80;99.90;;;;;;5138609;27;20043;-72
2023/05/28 03:10:15;;;;;;;18.38;6.97;;;11.80;99.90;;;;;;5156405;27;20046;-72
2023/05/28 03:12:40;;;;;;;18.45;7.88;;;11.80;99.90;;;;;;5156249;27;20404;-72
2023/05/28 03:15:07;;;;;;;11.38;6.25;;;11.70;99.90;;;;;;5156427;27;20043;-72
2023/05/28 03:17:33;;;;;;;11.88;6.93;;;11.70;99.90;;;;;;5156249;27;20050;-72
2023/05/28 03:19:58;;;;;;;14.32;8.13;;;11.70;99.90;;;;;;5138704;27;20035;-72
2023/05/28 03:22:25;;;;;;;11.45;7.05;;;11.70;99.90;;;;;;5156145;27;20042;-72
2023/05/28 03:24:50;;;;;;;15.43;7.47;;;11.60;99.90;;;;;;5137802;27;20159;-72
2023/05/28 03:27:16;;;;;;;9.32;6.28;;;11.60;99.90;;;;;;5156276;27;20067;-72
2023/05/28 03:29:42;;;;;;;16.27;7.40;;;11.60;99.90;;;;;;5156393;27;20467;-72
2023/05/28 03:32:07;;;;;;;13.68;6.90;;;11.60;99.90;;;;;;5156113;27;20047;-71
2023/05/28 03:34:33;;;;;;;13.82;6.75;;;11.70;99.90;;;;;;5155960;27;20444;-72
2023/05/28 03:36:59;;;;;;;14.05;7.07;;;11.70;99.90;;;;;;5156009;27;20046;-72
2023/05/28 03:39:25;;;;;;;14.13;7.07;;;11.70;99.90;;;;;;5155928;27;20046;-72
2023/05/28 03:41:50;;;;;;;14.88;7.72;;;11.70;99.90;;;;;;5156092;27;20385;-72
2023/05/28 03:44:17;;;;;;;14.93;6.50;;;11.70;99.90;;;;;;5137112;27;20054;-72
2023/05/28 03:46:43;;;;;;;17.50;7.22;;;11.70;99.90;;;;;;5156262;27;20047;-72
2023/05/28 03:49:09;;;;;;;12.27;6.65;;;11.70;99.90;;;;;;5155841;27;20089;-72
2023/05/28 03:51:34;;;;;;;11.05;6.80;;;11.70;99.90;;;;;;5155969;27;20035;-72
2023/05/28 03:54:00;;;;;;;13.98;7.43;;;11.70;99.90;;;;;;5120878;27;20046;-73
2023/05/28 03:56:26;;;;;;;15.07;8.20;;;11.70;99.90;;;;;;5155641;27;20043;-72
2023/05/28 03:58:52;;;;;;;13.85;6.50;;;11.70;99.90;;;;;;5155629;27;20077;-73
2023/05/28 04:01:18;;;;;;;15.45;6.57;;;11.70;99.90;;;;;;5155583;27;20045;-72
2023/05/28 04:03:44;;;;;;;9.63;6.63;;;11.70;99.90;;;;;;5155560;27;20081;-72
2023/05/28 04:06:10;;;;;;;12.32;6.95;;;11.60;99.90;;;;;;5156044;27;20046;-71
2023/05/28 04:08:36;;;;;;;14.13;7.20;;;11.60;99.90;;;;;;5155457;27;20423;-72
2023/05/28 04:11:02;;;;;;;16.30;6.90;;;11.60;99.90;;;;;;5155425;27;20043;-72
2023/05/28 04:13:27;;;;;;;10.35;6.32;;;11.60;99.90;;;;;;5155666;27;20049;-72
2023/05/28 04:15:53;;;;;;;14.52;7.25;;;11.60;99.90;;;;;;5155125;27;20069;-72
2023/05/28 04:18:19;;;;;;;14.73;7.65;;;11.60;99.90;;;;;;5155085;27;20065;-72
2023/05/28 04:20:45;;;;;;;11.65;6.93;;;11.60;99.90;;;;;;5136774;27;20057;-73
2023/05/28 04:23:10;;;;;;;13.07;7.55;;;11.60;99.90;;;;;;5155332;27;20556;-72
2023/05/28 04:25:36;;;;;;;15.88;7.25;;;11.60;99.90;;;;;;5155311;27;20043;-72
2023/05/28 04:28:03;;;;;;;17.73;7.80;;;11.60;99.90;;;;;;5154621;27;20458;-72
2023/05/28 04:30:28;;;;;;;12.77;7.30;;;11.60;99.90;;;;;;5155803;27;20046;-72
2023/05/28 04:32:55;;;;;;;15.40;6.53;;;11.70;99.90;;;;;;5154966;27;20038;-72
2023/05/28 04:35:21;;;;;;;13.45;7.05;;;11.70;99.90;;;;;;5154902;27;20085;-71
2023/05/28 04:37:50;;;;;;;13.02;6.47;;;11.70;99.90;;;;;;5154471;27;20038;-72
2023/05/28 04:40:17;;;;;;;11.63;6.82;;;11.70;99.90;;;;;;5154651;27;20166;-72
2023/05/28 04:42:43;;;;;;;11.70;6.57;;;11.70;99.90;;;;;;5155317;27;20155;-72
2023/05/28 04:45:10;;;;;;;12.98;6.90;;;11.70;99.90;;;;;;5155087;27;20542;-72
2023/05/28 04:47:36;;;;;;;12.32;7.18;;;11.80;99.90;;;;;;5155220;27;20049;-73
2023/05/28 04:50:04;;;;;;;11.38;5.97;;;11.80;99.90;;;;;;5136746;27;20379;-72
2023/05/28 04:52:32;;;;;;;11.68;6.30;;;11.80;99.90;;;;;;5136312;27;20038;-72
2023/05/28 04:54:58;;;;;;;11.98;6.72;;;11.90;99.90;;;;;;5136344;27;20046;-72
2023/05/28 04:57:24;;;;;;;11.85;6.15;;;11.90;99.90;;;;;;5136332;27;20049;-72
2023/05/28 04:59:51;;;;;;;9.57;5.43;;;11.90;99.90;;;;;;5154555;27;20126;-72
2023/05/28 05:02:19;;;;;;;12.60;6.32;;;12.00;99.90;;;;;;5154457;27;20046;-72
2023/05/28 05:04:45;;;;;;;13.93;5.93;;;12.00;99.90;;;;;;5154488;27;20046;-72
2023/05/28 05:07:14;;;;;;;13.82;6.70;;;12.10;99.90;;;;;;5154349;27;20380;-72
2023/05/28 05:09:40;;;;;;;11.30;6.28;;;12.10;99.90;;;;;;5154206;27;20042;-73
2023/05/28 05:12:07;;;;;;;8.88;6.22;;;12.20;99.90;;;;;;5154234;27;20113;-72
2023/05/28 05:14:33;;;;;;;12.45;6.05;;;12.30;99.90;;;;;;5154758;27;20054;-72
2023/05/28 05:16:59;;;;;;;13.68;6.97;;;12.40;99.90;;;;;;5154391;27;20053;-73
2023/05/28 05:19:25;;;;;;;14.95;6.72;;;12.40;99.90;;;;;;5119829;27;20054;-72
2023/05/28 05:21:51;;;;;;;18.33;6.47;;;12.50;99.90;;;;;;5154659;27;20050;-73
2023/05/28 05:24:17;;;;;;;12.32;6.63;;;12.70;99.90;;;;;;5136944;27;20133;-74
2023/05/28 05:26:43;;;;;;;13.70;6.18;;;12.70;99.90;;;;;;5136745;27;20071;-73
2023/05/28 05:29:09;;;;;;;13.07;6.97;;;12.90;99.90;;;;;;5154449;27;20074;-72
2023/05/28 05:31:36;;;;;;;12.82;6.07;;;12.90;99.90;;;;;;5119147;27;20051;-72
2023/05/28 05:34:02;;;;;;;16.77;7.60;;;12.90;99.90;;;;;;5136249;27;20043;-74
2023/05/28 05:36:28;;;;;;;14.15;6.63;;;12.90;99.90;;;;;;5136503;27;20050;-72
2023/05/28 05:38:53;;;;;;;11.35;5.88;;;12.90;99.90;;;;;;5155710;27;20463;-73
2023/05/28 05:41:21;;;;;;;12.18;5.85;;;13.00;99.90;;;;;;5139654;27;20119;-72
2023/05/28 05:43:47;;;;;;;13.63;6.78;;;13.10;99.90;;;;;;5158162;27;20058;-73
2023/05/28 05:46:12;;;;;;;9.60;5.68;;;13.10;99.90;;;;;;5158092;27;20055;-73
2023/05/28 05:48:38;;;;;;;10.10;6.35;;;13.30;99.90;;;;;;5139324;27;20494;-73
2023/05/28 05:51:04;;;;;;;13.88;6.93;;;13.40;99.90;;;;;;5157766;27;20110;-74
2023/05/28 05:53:29;;;;;;;21.75;6.80;;;13.40;99.90;;;;;;5157725;27;20115;-74
2023/05/28 05:55:55;;;;;;;13.05;6.38;;;13.40;99.90;;;;;;5157882;27;20125;-74
2023/05/28 05:58:21;;;;;;;10.10;6.78;;;13.50;99.90;;;;;;5088404;27;20050;-74
2023/05/28 06:00:47;;;;;;;11.35;6.72;;;13.50;99.90;;;;;;5157866;27;20049;-74
2023/05/28 06:03:14;;;;;;;18.60;6.95;;;13.60;99.90;;;;;;5157747;27;20047;-72
2023/05/28 06:05:39;;;;;;;11.23;6.40;;;13.60;99.90;;;;;;5139131;27;20058;-72
2023/05/28 06:08:05;;;;;;;10.70;6.10;;;13.70;99.90;;;;;;5139653;27;20043;-72
2023/05/28 06:10:31;;;;;;;9.90;6.03;;;13.80;99.90;;;;;;5157513;27;20043;-72
2023/05/28 06:12:56;;;;;;;8.20;5.88;;;14.00;99.90;;;;;;5157486;27;20134;-73
2023/05/28 06:15:24;;;;;;;13.07;6.22;;;14.00;99.90;;;;;;5157416;27;20122;-73
2023/05/28 06:17:51;;;;;;;10.60;5.85;;;14.10;99.90;;;;;;5157937;27;20054;-73
2023/05/28 06:20:19;;;;;;;16.30;7.03;;;14.30;99.90;;;;;;5157298;27;20050;-73
2023/05/28 06:22:45;;;;;;;10.65;5.85;;;14.50;99.90;;;;;;5157384;27;20105;-72
2023/05/28 06:25:11;;;;;;;8.77;5.68;;;14.90;99.90;;;;;;5157315;27;20499;-73
2023/05/28 06:27:37;;;;;;;9.77;6.55;;;16.00;99.90;;;;;;5157084;27;20467;-72
2023/05/28 06:30:04;;;;;;;11.73;5.68;;;16.90;99.90;;;;;;5157019;27;20046;-71
2023/05/28 06:32:31;;;;;;;8.20;4.80;;;17.10;99.90;;;;;;5138589;27;20106;-73
2023/05/28 06:34:57;;;;;;;8.48;5.03;;;17.40;99.90;;;;;;5157035;27;20046;-72
2023/05/28 06:37:22;;;;;;;6.85;4.18;;;17.90;99.90;;;;;;5157097;27;20051;-72
2023/05/28 06:39:48;;;;;;;5.95;4.88;;;18.10;99.90;;;;;;5157280;27;20049;-73
2023/05/28 06:42:14;;;;;;;7.00;4.85;;;18.50;99.90;;;;;;5157493;27;20485;-73
2023/05/28 06:44:40;;;;;;;8.95;4.63;;;19.00;99.90;;;;;;5138998;27;20382;-73
2023/05/28 06:47:05;;;;;;;7.45;4.47;;;19.20;99.90;;;;;;5138547;27;20043;-72
2023/05/28 06:49:31;;;;;;;10.27;4.32;;;19.40;99.90;;;;;;5156390;27;20046;-72
2023/05/28 06:51:57;;;;;;;10.00;5.22;;;19.70;99.90;;;;;;5156169;27;20041;-74
2023/05/28 06:54:23;;;;;;;7.95;5.28;;;20.20;99.90;;;;;;5156682;27;20055;-73
2023/05/28 06:56:48;;;;;;;9.80;4.55;;;20.30;99.60;;;;;;5156747;27;20094;-73
2023/05/28 06:59:14;;;;;;;8.52;4.70;;;20.00;98.90;;;;;;5138250;27;20495;-73
2023/05/28 07:01:40;;;;;;;8.35;5.07;;;20.40;99.40;;;;;;5120774;27;20098;-73
2023/05/28 07:04:05;;;;;;;6.80;4.53;;;21.10;99.20;;;;;;5156616;27;20042;-73
2023/05/28 07:06:32;;;;;;;9.10;5.70;;;21.50;97.70;;;;;;5156419;27;20550;-74
2023/05/28 07:08:58;;;;;;;8.63;5.10;;;21.50;96.80;;;;;;5138183;27;20047;-73
2023/05/28 07:11:23;;;;;;;8.55;5.05;;;21.60;95.60;;;;;;5156293;27;20035;-74
2023/05/28 07:13:49;;;;;;;7.40;4.80;;;21.50;92.80;;;;;;5156397;27;20058;-73
2023/05/28 07:16:15;;;;;;;10.75;5.07;;;21.00;93.50;;;;;;5156389;27;20483;-73
2023/05/28 07:18:41;;;;;;;10.27;4.65;;;20.20;92.50;;;;;;5138117;27;20073;-73
2023/05/28 07:21:07;;;;;;;7.72;4.20;;;20.60;94.00;;;;;;5137911;27;20080;-74
2023/05/28 07:23:32;;;;;;;6.72;4.15;;;21.00;94.00;;;;;;5137787;27;20050;-74
2023/05/28 07:25:58;;;;;;;9.45;4.00;;;21.50;93.20;;;;;;5156331;27;20046;-75
2023/05/28 07:28:23;;;;;;;5.43;3.90;;;21.70;91.70;;;;;;5156171;27;20078;-74
2023/05/28 07:30:49;;;;;;;7.03;4.30;;;21.20;91.80;;;;;;5156386;27;20050;-74
2023/05/28 07:33:15;;;;;;;7.93;4.03;;;20.30;91.50;;;;;;5120766;27;20043;-74
2023/05/28 07:35:41;;;;;;;7.20;3.83;;;20.10;92.40;;;;;;5155919;27;20054;-74
2023/05/28 07:38:07;;;;;;;7.80;3.75;;;20.00;93.00;;;;;;5137680;27;20137;-75
2023/05/28 07:40:33;;;;;;;6.82;4.28;;;20.60;93.50;;;;;;5155774;27;20046;-74
2023/05/28 07:42:58;;;;;;;4.78;3.50;;;20.90;93.30;;;;;;5138215;27;20051;-74
2023/05/28 07:45:24;;;;;;;11.43;3.63;;;20.80;92.70;;;;;;5156408;27;20049;-74
2023/05/28 07:47:50;;;;;;;7.78;4.32;;;21.30;93.40;;;;;;5155825;27;20107;-74
2023/05/28 07:50:15;;;;;;;6.60;3.80;;;22.10;92.80;;;;;;5137319;27;20041;-74
2023/05/28 07:52:41;;;;;;;8.43;4.20;;;22.30;91.30;;;;;;5137381;27;20436;-74
2023/05/28 07:55:07;;;;;;;7.32;4.53;;;21.90;90.40;;;;;;5103292;27;20054;-74
2023/05/28 07:57:33;;;;;;;4.85;3.53;;;22.30;91.40;;;;;;5138020;27;20457;-73
2023/05/28 08:00:00;;;;;;;10.35;4.32;;;22.10;90.80;;;;;;5155827;27;20078;-74
2023/05/28 08:02:26;;;;;;;5.88;3.55;;;22.50;91.30;;;;;;5154473;27;20058;-75
2023/05/28 08:04:53;;;;;;;4.55;3.47;;;22.40;89.80;;;;;;5155518;27;20042;-73
2023/05/28 08:07:19;;;;;;;5.47;3.80;;;22.50;90.60;;;;;;5137381;27;20050;-74
2023/05/28 08:09:45;;;;;;;7.43;3.47;;;23.10;90.20;;;;;;5155317;27;20118;-73
2023/05/28 08:12:11;;;;;;;5.50;3.10;;;23.40;88.80;;;;;;5155329;27;20087;-74
2023/05/28 08:14:37;;;;;;;6.55;3.90;;;23.40;87.00;;;;;;5155685;27;20055;-75
2023/05/28 08:17:02;;;;;;;4.32;3.25;;;22.30;80.80;;;;;;5155621;27;20064;-74
2023/05/28 08:19:28;;;;;;;4.70;3.35;;;23.10;82.90;;;;;;5155153;27;20191;-74
2023/05/28 08:21:54;;;;;;;5.47;3.50;;;23.00;78.90;;;;;;5155231;27;20546;-74
2023/05/28 08:24:20;;;;;;;5.55;3.90;;;22.60;74.30;;;;;;5155153;27;20061;-74
2023/05/28 08:26:46;;;;;;;6.00;3.22;;;23.10;80.10;;;;;;5155248;27;20087;-74
2023/05/28 08:29:12;;;;;;;6.05;3.60;;;23.30;77.80;;;;;;5155158;27;20047;-74
2023/05/28 08:31:37;;;;;;;4.53;3.35;;;22.90;74.70;;;;;;5155554;27;20041;-75
2023/05/28 08:34:03;;;;;;;3.28;2.90;;;22.60;75.40;;;;;;5155053;27;20420;-73
2023/05/28 08:36:31;;;;;;;6.15;4.00;;;23.40;78.90;;;;;;5154674;27;20052;-74
2023/05/28 08:38:57;;;;;;;5.97;3.55;;;23.50;77.30;;;;;;5155056;27;20538;-74
2023/05/28 08:41:23;;;;;;;3.95;2.95;;;23.40;76.50;;;;;;5136584;27;20174;-73
2023/05/28 08:43:49;;;;;;;4.65;3.35;;;22.70;75.70;;;;;;5154800;27;20049;-74
2023/05/28 08:46:15;;;;;;;6.00;3.80;;;22.70;78.10;;;;;;5154671;27;20042;-74
2023/05/28 08:48:42;;;;;;;6.35;3.45;;;22.70;78.40;;;;;;5156285;27;20050;-73
2023/05/28 08:51:08;;;;;;;5.47;3.58;;;22.90;76.00;;;;;;5156581;27;20435;-74
2023/05/28 08:53:44;;;;;;;9.10;4.45;;;23.10;76.20;;;;;;5155968;27;20065;-74
2023/05/28 08:56:10;;;;;;;7.85;3.92;;;22.40;73.90;;;;;;5155205;27;20190;-70
2023/05/28 08:58:38;;;;;;;6.00;4.38;;;22.40;76.10;;;;;;5155163;27;20070;-75
2023/05/28 09:01:08;;;;;;;6.13;3.58;;;22.50;76.50;;;;;;5154611;27;20049;-75
2023/05/28 09:03:35;;;;;;;5.65;3.65;;;23.20;78.10;;;;;;5154556;27;20050;-75
2023/05/28 09:06:01;;;;;;;5.43;3.55;;;23.30;76.80;;;;;;5154365;27;20051;-74
2023/05/28 09:08:27;;;;;;;4.93;3.20;;;23.50;76.50;;;;;;5154684;27;20081;-73
2023/05/28 09:10:57;;;;;;;6.45;3.80;;;23.40;74.40;;;;;;5154825;27;20489;-74
2023/05/28 09:13:23;;;;;;;7.47;4.57;;;23.00;73.40;;;;;;5154223;27;20522;-74
2023/05/28 09:15:53;;;;;;;5.47;4.03;;;23.10;75.90;;;;;;5154156;27;20125;-74
2023/05/28 09:18:21;;;;;;;5.38;3.80;;;23.50;76.00;;;;;;5154399;27;20390;-72
2023/05/28 09:20:51;;;;;;;6.80;3.65;;;23.60;74.80;;;;;;5153807;27;20479;-73
2023/05/28 09:23:18;;;;;;;6.03;4.22;;;23.40;75.80;;;;;;5153629;27;20455;-74
2023/05/28 09:25:44;;;;;;;6.00;4.10;;;23.50;76.00;;;;;;5154075;27;20039;-73
2023/05/28 09:28:14;;;;;;;5.97;3.92;;;23.40;73.90;;;;;;5135784;27;20090;-74
2023/05/28 09:30:41;;;;;;;9.18;4.75;;;23.40;76.90;;;;;;5154147;27;20043;-73
2023/05/28 09:33:08;;;;;;;6.10;4.53;;;22.80;75.90;;;;;;5136287;27;20058;-74
2023/05/28 09:35:35;;;;;;;8.77;4.53;;;22.80;74.90;;;;;;5154069;27;20078;-73
2023/05/28 09:38:09;;;;;;;6.38;4.40;;;22.70;75.70;;;;;;5154336;27;20049;-75
2023/05/28 09:40:42;;;;;;;8.88;5.75;;;22.40;74.50;;;;;;5135708;27;20061;-73
2023/05/28 09:43:08;;;;;;;6.25;4.97;;;22.60;74.10;;;;;;5154092;27;20046;-74
2023/05/28 09:45:34;;;;;;;6.72;5.43;;;23.20;74.20;;;;;;5135689;27;20078;-74
2023/05/28 09:48:01;;;;;;;9.25;5.05;;;23.20;73.50;;;;;;5153947;27;20043;-73
2023/05/28 09:50:27;;;;;;;8.70;5.28;;;22.90;72.00;;;;;;5153707;27;20043;-74
2023/05/28 09:52:58;;;;;;;8.32;5.63;;;22.90;69.60;;;;;;5154009;27;20042;-72
2023/05/28 09:55:25;;;;;;;7.30;5.57;;;22.40;70.80;;;;;;5119016;27;20100;-74
2023/05/28 09:57:54;;;;;;;8.57;5.88;;;22.70;72.50;;;;;;5153842;27;20076;-74
2023/05/28 10:00:29;;;;;;;8.85;5.20;;;22.60;71.60;;;;;;5153637;27;20078;-74
2023/05/28 10:03:11;;;;;;;7.32;5.07;;;22.90;71.90;;;;;;5154104;27;20046;-74
2023/05/28 10:05:39;;;;;;;9.88;5.80;;;22.90;73.40;;;;;;5135468;27;20111;-75
2023/05/28 10:08:06;;;;;;;7.20;5.53;;;23.20;74.10;;;;;;5153580;27;20078;-73
2023/05/28 10:10:32;;;;;;;7.18;5.50;;;23.50;73.30;;;;;;5135313;27;20091;-73
2023/05/28 10:12:58;;;;;;;8.85;5.72;;;23.80;72.70;;;;;;5153923;27;20049;-72
2023/05/28 10:15:25;;;;;;;7.40;5.13;;;23.50;66.00;;;;;;5135696;27;20123;-73
2023/05/28 10:17:51;;;;;;;5.57;4.43;;;23.20;69.90;;;;;;5153691;27;20046;-73
2023/05/28 10:20:18;;;;;;;7.05;5.20;;;23.40;70.60;;;;;;5154126;27;20070;-72
2023/05/28 10:22:44;;;;;;;8.15;5.40;;;23.50;71.30;;;;;;5153178;27;20494;-73
2023/05/28 10:25:11;;;;;;;7.32;4.90;;;24.10;71.40;;;;;;5153965;27;20054;-73
2023/05/28 10:27:45;;;;;;;8.02;5.00;;;24.20;70.50;;;;;;5157134;27;20107;-73
2023/05/28 10:30:14;;;;;;;7.68;5.13;;;24.30;71.40;;;;;;5157853;27;20042;-72
2023/05/28 10:32:41;;;;;;;9.88;5.60;;;23.80;71.50;;;;;;5121743;27;20106;-73
2023/05/28 10:35:09;;;;;;;7.28;5.07;;;23.50;69.90;;;;;;5157377;27;20047;-73
2023/05/28 10:37:35;;;;;;;9.40;6.55;;;23.50;71.20;;;;;;5157191;27;20051;-71
2023/05/28 10:40:02;;;;;;;7.70;5.63;;;23.00;70.90;;;;;;5156907;27;20130;-72
2023/05/28 10:42:27;;;;;;;7.22;5.03;;;22.90;69.80;;;;;;5156813;27;20042;-73
2023/05/28 10:44:59;;;;;;;8.27;6.15;;;22.90;71.50;;;;;;5157065;27;20102;-72
2023/05/28 10:47:51;;;;;;;6.78;5.18;;;23.00;72.10;;;;;;5156637;27;20428;-72
2023/05/28 10:50:18;;;;;;;9.35;6.20;;;23.20;70.60;;;;;;5156939;27;20099;-74
2023/05/28 10:53:06;;;;;;;9.55;5.82;;;23.20;71.30;;;;;;5157159;27;20038;-73
2023/05/28 10:55:51;;;;;;;9.15;5.63;;;23.10;71.10;;;;;;5157170;27;20046;-72
2023/05/28 10:58:34;;;;;;;7.82;6.05;;;23.20;71.50;;;;;;5156832;27;20047;-72
2023/05/28 11:01:04;;;;;;;8.23;6.32;;;23.10;70.10;;;;;;5156724;27;20039;-72
2023/05/28 11:03:44;;;;;;;8.13;5.70;;;23.00;70.70;;;;;;5157032;27;20042;-72
2023/05/28 11:06:11;;;;;;;9.15;6.47;;;22.70;70.00;;;;;;5156638;27;20042;-72
2023/05/28 11:08:42;;;;;;;6.53;5.40;;;22.60;70.60;;;;;;5156714;27;20086;-72
2023/05/28 11:11:14;;;;;;;8.27;5.75;;;22.30;71.10;;;;;;5156623;27;20037;-71
2023/05/28 11:13:43;;;;;;;6.65;5.10;;;22.30;72.80;;;;;;5157148;27;20043;-72
2023/05/28 11:16:10;;;;;;;7.68;5.35;;;22.20;71.30;;;;;;5138215;27;20084;-71
2023/05/28 11:18:36;;;;;;;6.82;4.68;;;22.30;72.00;;;;;;5157054;27;20135;-71
2023/05/28 11:21:11;;;;;;;7.82;5.57;;;22.40;72.00;;;;;;5156253;27;20502;-71
2023/05/28 11:23:39;;;;;;;7.20;4.60;;;22.30;72.60;;;;;;5139262;27;20138;-71
2023/05/28 11:26:06;;;;;;;7.10;4.30;;;22.30;72.40;;;;;;5156056;27;20460;-72
2023/05/28 11:28:31;;;;;;;8.18;4.40;;;22.00;73.10;;;;;;5156345;27;20053;-72
2023/05/28 11:30:58;;;;;;;8.27;4.47;;;22.10;72.10;;;;;;5156740;27;20034;-72
2023/05/28 11:33:28;;;;;;;7.32;4.28;;;22.10;72.70;;;;;;5156199;27;20043;-72
2023/05/28 11:35:59;;;;;;;4.82;3.63;;;22.20;73.60;;;;;;5137493;27;20046;-72
2023/05/28 11:38:25;;;;;;;6.30;4.05;;;22.10;70.80;;;;;;5155895;27;20049;-72
2023/05/28 11:41:01;;;;;;;6.78;3.95;;;21.90;71.50;;;;;;5137279;27;20055;-72
2023/05/28 11:43:27;;;;;;;5.60;3.50;;;21.80;72.60;;;;;;5155842;27;20059;-72
2023/05/28 11:46:00;;;;;;;7.40;3.58;;;22.00;72.80;;;;;;5155658;27;20126;-72
2023/05/28 11:48:27;;;;;;;4.88;3.72;;;21.90;74.70;;;;;;5155745;27;20046;-71
2023/05/28 11:51:02;;;;;;;6.35;3.70;;;21.90;74.50;;;;;;5155525;27;20042;-72
2023/05/28 11:53:40;;;;;;;6.05;3.40;;;22.00;77.50;;;;;;5155387;27;20039;-72
2023/05/28 11:56:08;;;;;;;5.85;3.20;;;22.10;77.20;;;;;;5155169;27;20050;-72
2023/05/28 11:58:37;;;;;;;6.60;3.83;;;22.20;75.60;;;;;;5155596;27;20050;-72
2023/05/28 12:01:03;;;;;;;9.30;4.05;;;22.00;76.30;;;;;;5155800;27;20126;-72
2023/05/28 12:03:28;;;;;;;6.75;3.53;;;21.70;77.20;;;;;;5156402;27;20050;-72
2023/05/28 12:05:54;;;;;;;4.20;3.65;;;21.70;78.50;;;;;;5155797;27;20159;-72
2023/05/28 12:08:20;;;;;;;6.43;3.53;;;21.80;79.20;;;;;;5155701;27;20086;-72
2023/05/28 12:10:45;;;;;;;7.35;4.03;;;21.60;79.80;;;;;;5155409;27;20464;-72
2023/05/28 12:13:15;;;;;;;7.88;3.50;;;21.70;80.50;;;;;;5155180;27;20046;-72
2023/05/28 12:15:41;;;;;;;5.55;4.22;;;21.90;82.00;;;;;;5136972;27;20474;-72
2023/05/28 12:18:07;;;;;;;7.30;4.65;;;21.80;81.10;;;;;;5155023;27;20089;-72
2023/05/28 12:20:37;;;;;;;5.15;3.85;;;22.00;82.30;;;;;;5118995;27;20110;-72
2023/05/28 12:23:11;;;;;;;6.97;3.90;;;21.80;82.60;;;;;;5154581;27;20043;-72
2023/05/28 12:25:43;;;;;;;7.35;3.97;;;21.60;82.20;;;;;;5155522;27;20065;-72
2023/05/28 12:28:14;;;;;;;6.30;4.75;;;21.30;83.30;;;;;;5155021;27;20039;-72
2023/05/28 12:30:43;;;;;;;8.30;4.25;;;21.00;84.80;;;;;;5155187;27;20038;-72
2023/05/28 12:33:10;;;;;;;10.35;4.57;;;21.10;84.80;;;;;;5136635;27;20051;-73
2023/05/28 12:35:35;;;;;;;6.38;3.88;;;21.10;85.90;;;;;;5154862;27;20047;-72
2023/05/28 12:38:02;;;;;;;9.85;4.20;;;21.00;86.20;;;;;;5154640;27;20054;-72
2023/05/28 12:40:28;;;;;;;8.07;4.05;;;21.20;86.50;;;;;;5154501;27;20046;-72